首页
METAR-TAF:

METAR-TAF

机场 :

布加勒斯特伯尼亚萨-奥雷尔·弗拉伊库国际机场

布加勒斯特Băneasa, 罗马尼亚

纬度: 44-30N, 经度: 026-08E, 海拔: 90米

当前天气观测

该预报发布于13分钟前的16:00 UTC
静风
温度 23°C
湿度 31%
气压 1013 hPa
能见度10公里或以上

METAR: LRBS 231600Z AUTO 00000KT 9999 BKN100/// 23/05 Q1013 NOSIG

时间: 19:13 (16:13 UTC)

预报

该预报发布于5小时和13分钟前的11:00 UTC
预报有效从23日的 12点(UTC)到 24日的 12点(UTC)
风速4节,风向多变
能见度10公里或以上
1500米以下无云,无积雨云
成为
从 24日的 00点(UTC)到 24日的 02点(UTC)
风速10节,风向东北
几率 30% :
短暂存在
从 24日的 03点(UTC)到 24日的 09点(UTC)
能見度: 5000
多云层高于1500英尺
阴天层高于4000英尺
小雨, 轻雾

TAF: LRBS 231100Z 2312/2412 VRB04KT CAVOK BECMG 2400/2402 05010KT PROB30 TEMPO 2403/2409 5000 -RA BR BKN015 OVC040

超过4000个机场的气象观测和天气预报(METAR&TAF报告)。

可查询的气象台以黄色和红色小点在地图上表示。

将鼠标移到小点上方,可查看气象台名称。

然后点击查看天气观测和预报。

如需切换地图:点击带黑十字的绿色按钮放大地图;点击带横线的绿色按钮缩小地图;或者点击绿色箭头查看邻近地区的地图。


METAR-TAF: